LDSS weather

Sinj Glider Airport
Sinj, Split-Dalmatia County, Croatia

Public forecast

Using degrees Celsius for public forecast. Weather courtesy of forecast.io.

Closest aviation weather report (METAR) to Sinj Glider Airport

Closest report is Split Airport, 18.9 nm (35.0 km) WSW. Retrieved 2020/06/02 01:00 UTC (35 minutes ago):

LDSP 020100Z AUTO 25005KT 210V300 CAVOK 17/08 Q1014

Closest aviation forecast (TAF) to Sinj Glider Airport

Closest forecast is Split Airport, 18.9 nm (35.0 km) WSW. Retrieved 2020-06-02 00:26 UTC (1 hour ago):

TAF LDSP 012325Z 0200/0300 32008KT CAVOK TX26/0213Z TN15/0204Z PROB30 TEMPO 0210/0215 23008KT BECMG 0218/0220 03008KT